sensor_id;sensor_type;location;lat;lon;timestamp;pressure;altitude;pressure_sealevel;temperature;humidity
23419;BME280;11882;42.522;27.458;2022-09-03T00:00:35;100773.47;;;23.25;91.46
23419;BME280;11882;42.522;27.458;2022-09-03T00:03:07;100767.72;;;23.22;91.58
23419;BME280;11882;42.522;27.458;2022-09-03T00:05:40;100772.56;;;23.14;91.14
23419;BME280;11882;42.522;27.458;2022-09-03T00:08:14;100757.34;;;23.13;90.40
23419;BME280;11882;42.522;27.458;2022-09-03T00:10:51;100760.06;;;23.13;90.02
23419;BME280;11882;42.522;27.458;2022-09-03T00:13:23;100766.56;;;23.12;90.29
23419;BME280;11882;42.522;27.458;2022-09-03T00:15:52;100757.00;;;23.05;89.88
23419;BME280;11882;42.522;27.458;2022-09-03T00:18:24;100752.13;;;23.07;90.03
23419;BME280;11882;42.522;27.458;2022-09-03T00:20:56;100756.22;;;23.09;90.61
23419;BME280;11882;42.522;27.458;2022-09-03T00:23:27;100747.81;;;23.11;90.32
23419;BME280;11882;42.522;27.458;2022-09-03T00:25:59;100741.59;;;23.10;89.82
23419;BME280;11882;42.522;27.458;2022-09-03T00:28:34;100736.97;;;23.11;89.65
23419;BME280;11882;42.522;27.458;2022-09-03T00:31:07;100743.50;;;23.15;89.76
23419;BME280;11882;42.522;27.458;2022-09-03T00:33:39;100743.50;;;23.15;89.76
23419;BME280;11882;42.522;27.458;2022-09-03T00:36:14;100741.09;;;23.19;90.05
23419;BME280;11882;42.522;27.458;2022-09-03T00:38:42;100750.06;;;23.19;90.02
23419;BME280;11882;42.522;27.458;2022-09-03T00:41:21;100756.31;;;23.20;89.97
23419;BME280;11882;42.522;27.458;2022-09-03T00:44:06;100757.94;;;23.21;90.45
23419;BME280;11882;42.522;27.458;2022-09-03T00:46:40;100757.16;;;23.25;91.28
23419;BME280;11882;42.522;27.458;2022-09-03T00:49:29;100763.16;;;23.27;91.22
23419;BME280;11882;42.522;27.458;2022-09-03T00:52:06;100768.59;;;23.27;91.36
23419;BME280;11882;42.522;27.458;2022-09-03T00:54:42;100772.69;;;23.30;91.68
23419;BME280;11882;42.522;27.458;2022-09-03T00:57:26;100779.47;;;23.32;91.33
23419;BME280;11882;42.522;27.458;2022-09-03T01:00:00;100783.84;;;23.33;91.89
23419;BME280;11882;42.522;27.458;2022-09-03T01:02:38;100785.47;;;23.34;91.53
23419;BME280;11882;42.522;27.458;2022-09-03T01:05:21;100789.00;;;23.35;91.66
23419;BME280;11882;42.522;27.458;2022-09-03T01:07:58;100785.75;;;23.33;92.39
23419;BME280;11882;42.522;27.458;2022-09-03T01:10:33;100793.88;;;23.33;92.77
23419;BME280;11882;42.522;27.458;2022-09-03T01:13:11;100798.25;;;23.34;93.18
23419;BME280;11882;42.522;27.458;2022-09-03T01:15:44;100798.25;;;23.34;93.32
23419;BME280;11882;42.522;27.458;2022-09-03T01:18:20;100802.31;;;23.36;93.42
23419;BME280;11882;42.522;27.458;2022-09-03T01:21:01;100807.50;;;23.38;93.78
23419;BME280;11882;42.522;27.458;2022-09-03T01:24:05;100810.47;;;23.36;94.08
23419;BME280;11882;42.522;27.458;2022-09-03T01:26:49;100815.09;;;23.36;94.04
23419;BME280;11882;42.522;27.458;2022-09-03T01:29:26;100816.72;;;23.37;95.05
23419;BME280;11882;42.522;27.458;2022-09-03T01:32:04;100819.19;;;23.38;94.98
23419;BME280;11882;42.522;27.458;2022-09-03T01:34:44;100822.47;;;23.40;95.17
23419;BME280;11882;42.522;27.458;2022-09-03T01:37:23;100816.50;;;23.43;95.45
23419;BME280;11882;42.522;27.458;2022-09-03T01:40:02;100813.53;;;23.45;96.02
23419;BME280;11882;42.522;27.458;2022-09-03T01:42:40;100814.94;;;23.53;95.75
23419;BME280;11882;42.522;27.458;2022-09-03T01:45:22;100825.81;;;23.53;96.04
23419;BME280;11882;42.522;27.458;2022-09-03T01:48:06;100817.44;;;23.54;95.84
23419;BME280;11882;42.522;27.458;2022-09-03T01:50:42;100816.59;;;23.54;96.01
23419;BME280;11882;42.522;27.458;2022-09-03T01:53:18;100817.16;;;23.56;95.91
23419;BME280;11882;42.522;27.458;2022-09-03T01:56:01;100813.63;;;23.55;96.22
23419;BME280;11882;42.522;27.458;2022-09-03T01:58:36;100814.47;;;23.56;95.69
23419;BME280;11882;42.522;27.458;2022-09-03T02:01:14;100805.72;;;23.54;95.34
23419;BME280;11882;42.522;27.458;2022-09-03T02:03:44;100816.03;;;23.52;95.52
23419;BME280;11882;42.522;27.458;2022-09-03T02:06:11;100814.66;;;23.49;95.16
23419;BME280;11882;42.522;27.458;2022-09-03T02:08:38;100804.03;;;23.47;95.53
23419;BME280;11882;42.522;27.458;2022-09-03T02:11:08;100808.66;;;23.47;95.41
23419;BME280;11882;42.522;27.458;2022-09-03T02:13:37;100816.25;;;23.45;95.69
23419;BME280;11882;42.522;27.458;2022-09-03T02:16:10;100809.44;;;23.42;95.32
23419;BME280;11882;42.522;27.458;2022-09-03T02:18:41;100806.97;;;23.41;95.08
23419;BME280;11882;42.522;27.458;2022-09-03T02:21:11;100802.38;;;23.41;94.82
23419;BME280;11882;42.522;27.458;2022-09-03T02:23:39;100806.47;;;23.44;94.35
23419;BME280;11882;42.522;27.458;2022-09-03T02:26:07;100798.56;;;23.42;94.58
23419;BME280;11882;42.522;27.458;2022-09-03T02:28:36;100810.50;;;23.41;94.11
23419;BME280;11882;42.522;27.458;2022-09-03T02:31:03;100806.16;;;23.40;93.99
23419;BME280;11882;42.522;27.458;2022-09-03T02:33:36;100806.44;;;23.39;94.51
23419;BME280;11882;42.522;27.458;2022-09-03T02:36:05;100805.34;;;23.40;94.54
23419;BME280;11882;42.522;27.458;2022-09-03T02:38:32;100803.44;;;23.40;94.23
23419;BME280;11882;42.522;27.458;2022-09-03T02:40:59;100809.13;;;23.39;94.09
23419;BME280;11882;42.522;27.458;2022-09-03T02:43:31;100804.53;;;23.39;93.75
23419;BME280;11882;42.522;27.458;2022-09-03T02:46:01;100815.38;;;23.39;93.72
23419;BME280;11882;42.522;27.458;2022-09-03T02:48:29;100822.97;;;23.37;93.60
23419;BME280;11882;42.522;27.458;2022-09-03T02:50:57;100826.22;;;23.34;93.75
23419;BME280;11882;42.522;27.458;2022-09-03T02:53:24;100828.63;;;23.31;93.42
23419;BME280;11882;42.522;27.458;2022-09-03T02:55:57;100825.91;;;23.31;93.01
23419;BME280;11882;42.522;27.458;2022-09-03T02:58:24;100821.31;;;23.31;93.11
23419;BME280;11882;42.522;27.458;2022-09-03T03:00:51;100825.09;;;23.30;93.49
23419;BME280;11882;42.522;27.458;2022-09-03T03:03:19;100819.66;;;23.30;93.44
23419;BME280;11882;42.522;27.458;2022-09-03T03:05:48;100822.38;;;23.30;93.34
23419;BME280;11882;42.522;27.458;2022-09-03T03:08:19;100829.72;;;23.30;93.81
23419;BME280;11882;42.522;27.458;2022-09-03T03:10:50;100822.06;;;23.27;93.66
23419;BME280;11882;42.522;27.458;2022-09-03T03:13:18;100829.66;;;23.25;93.53
23419;BME280;11882;42.522;27.458;2022-09-03T03:15:45;100833.16;;;23.20;93.01
23419;BME280;11882;42.522;27.458;2022-09-03T03:18:13;100822.56;;;23.19;93.41
23419;BME280;11882;42.522;27.458;2022-09-03T03:20:42;100820.09;;;23.17;93.27
23419;BME280;11882;42.522;27.458;2022-09-03T03:23:09;100822.81;;;23.17;92.95
23419;BME280;11882;42.522;27.458;2022-09-03T03:25:38;100819.28;;;23.17;93.07
23419;BME280;11882;42.522;27.458;2022-09-03T03:28:06;100822.81;;;23.17;93.31
23419;BME280;11882;42.522;27.458;2022-09-03T03:30:36;100823.59;;;23.12;92.78
23419;BME280;11882;42.522;27.458;2022-09-03T03:33:04;100829.00;;;23.12;92.73
23419;BME280;11882;42.522;27.458;2022-09-03T03:35:31;100831.47;;;23.14;92.87
23419;BME280;11882;42.522;27.458;2022-09-03T03:37:59;100834.19;;;23.14;93.04
23419;BME280;11882;42.522;27.458;2022-09-03T03:40:26;100828.75;;;23.14;92.61
23419;BME280;11882;42.522;27.458;2022-09-03T03:42:56;100826.84;;;23.14;93.22
23419;BME280;11882;42.522;27.458;2022-09-03T03:45:23;100830.41;;;23.15;93.26
23419;BME280;11882;42.522;27.458;2022-09-03T03:47:50;100834.19;;;23.14;92.85
23419;BME280;11882;42.522;27.458;2022-09-03T03:50:17;100840.44;;;23.14;93.35
23419;BME280;11882;42.522;27.458;2022-09-03T03:52:44;100841.25;;;23.15;93.23
23419;BME280;11882;42.522;27.458;2022-09-03T03:55:12;100846.13;;;23.13;93.65
23419;BME280;11882;42.522;27.458;2022-09-03T03:57:39;100853.19;;;23.14;93.92
23419;BME280;11882;42.522;27.458;2022-09-03T04:00:09;100852.94;;;23.15;94.20
23419;BME280;11882;42.522;27.458;2022-09-03T04:02:36;100853.75;;;23.16;94.68
23419;BME280;11882;42.522;27.458;2022-09-03T04:05:03;100857.53;;;23.15;94.96
23419;BME280;11882;42.522;27.458;2022-09-03T04:07:30;100852.94;;;23.15;95.78
23419;BME280;11882;42.522;27.458;2022-09-03T04:09:57;100847.75;;;23.14;95.30
23419;BME280;11882;42.522;27.458;2022-09-03T04:12:26;100858.38;;;23.15;95.63
23419;BME280;11882;42.522;27.458;2022-09-03T04:14:53;100867.88;;;23.18;95.60
23419;BME280;11882;42.522;27.458;2022-09-03T04:17:21;100863.28;;;23.19;95.14
23419;BME280;11882;42.522;27.458;2022-09-03T04:19:48;100862.19;;;23.20;94.88
23419;BME280;11882;42.522;27.458;2022-09-03T04:22:15;100864.66;;;23.21;94.67
23419;BME280;11882;42.522;27.458;2022-09-03T04:24:43;100869.31;;;23.26;94.64
23419;BME280;11882;42.522;27.458;2022-09-03T04:27:10;100869.63;;;23.29;94.50
23419;BME280;11882;42.522;27.458;2022-09-03T04:29:37;100864.50;;;23.33;95.04
23419;BME280;11882;42.522;27.458;2022-09-03T04:32:04;100865.09;;;23.40;94.92
23419;BME280;11882;42.522;27.458;2022-09-03T04:34:50;100867.34;;;23.48;94.64
23419;BME280;11882;42.522;27.458;2022-09-03T04:37:17;100873.88;;;23.52;94.27
23419;BME280;11882;42.522;27.458;2022-09-03T04:39:45;100884.34;;;23.65;94.41
23419;BME280;11882;42.522;27.458;2022-09-03T04:42:12;100880.59;;;23.71;92.81
23419;BME280;11882;42.522;27.458;2022-09-03T04:44:39;100880.16;;;23.85;91.95
23419;BME280;11882;42.522;27.458;2022-09-03T04:47:06;100876.16;;;23.97;90.68
23419;BME280;11882;42.522;27.458;2022-09-03T04:49:33;100879.22;;;24.11;89.74
23419;BME280;11882;42.522;27.458;2022-09-03T04:52:02;100879.63;;;24.30;88.73
23419;BME280;11882;42.522;27.458;2022-09-03T04:54:29;100887.63;;;24.52;87.65
23419;BME280;11882;42.522;27.458;2022-09-03T04:56:57;100891.25;;;24.83;86.61
23419;BME280;11882;42.522;27.458;2022-09-03T04:59:24;100901.19;;;25.19;84.60
23419;BME280;11882;42.522;27.458;2022-09-03T05:01:51;100901.22;;;25.55;83.13
23419;BME280;11882;42.522;27.458;2022-09-03T05:04:20;100909.66;;;25.89;82.19
23419;BME280;11882;42.522;27.458;2022-09-03T05:06:46;100914.56;;;26.17;81.33
23419;BME280;11882;42.522;27.458;2022-09-03T05:09:15;100912.09;;;26.36;80.28
23419;BME280;11882;42.522;27.458;2022-09-03T05:11:42;100922.38;;;26.59;79.60
23419;BME280;11882;42.522;27.458;2022-09-03T05:14:09;100928.25;;;26.87;78.16
23419;BME280;11882;42.522;27.458;2022-09-03T05:16:37;100927.84;;;27.14;77.69
23419;BME280;11882;42.522;27.458;2022-09-03T05:19:04;100931.50;;;27.43;75.82
23419;BME280;11882;42.522;27.458;2022-09-03T05:21:32;100932.13;;;27.69;74.94
23419;BME280;11882;42.522;27.458;2022-09-03T05:24:00;100928.34;;;27.94;73.84
23419;BME280;11882;42.522;27.458;2022-09-03T05:26:30;100932.28;;;28.12;72.28
23419;BME280;11882;42.522;27.458;2022-09-03T05:28:59;100932.09;;;28.32;71.12
23419;BME280;11882;42.522;27.458;2022-09-03T05:31:28;100936.53;;;28.52;70.42
23419;BME280;11882;42.522;27.458;2022-09-03T05:33:57;100941.53;;;28.69;69.21
23419;BME280;11882;42.522;27.458;2022-09-03T05:36:27;100944.63;;;28.86;68.89
23419;BME280;11882;42.522;27.458;2022-09-03T05:38:54;100942.84;;;28.95;67.16
23419;BME280;11882;42.522;27.458;2022-09-03T05:41:22;100950.03;;;29.10;66.93
23419;BME280;11882;42.522;27.458;2022-09-03T05:43:52;100949.31;;;29.04;65.94
23419;BME280;11882;42.522;27.458;2022-09-03T05:46:24;100958.13;;;29.01;65.83
23419;BME280;11882;42.522;27.458;2022-09-03T05:48:56;100955.69;;;29.18;66.11
23419;BME280;11882;42.522;27.458;2022-09-03T05:51:23;100962.50;;;29.40;64.84
23419;BME280;11882;42.522;27.458;2022-09-03T05:53:50;100960.34;;;29.56;63.85
23419;BME280;11882;42.522;27.458;2022-09-03T05:56:19;100961.53;;;29.68;64.02
23419;BME280;11882;42.522;27.458;2022-09-03T05:58:47;100967.81;;;29.69;100.00
23419;BME280;11882;42.522;27.458;2022-09-03T06:01:17;65820.00;;;-144.05;100.00
23419;BME280;11882;42.522;27.458;2022-09-03T06:03:46;65820.00;;;-144.05;100.00
23419;BME280;11882;42.522;27.458;2022-09-03T06:06:14;65820.00;;;-144.05;100.00
23419;BME280;11882;42.522;27.458;2022-09-03T06:08:41;65820.00;;;-144.05;100.00
23419;BME280;11882;42.522;27.458;2022-09-03T06:11:10;100967.81;;;29.69;62.92
23419;BME280;11882;42.522;27.458;2022-09-03T06:13:37;100970.03;;;30.18;60.91
23419;BME280;11882;42.522;27.458;2022-09-03T06:16:05;100968.72;;;30.29;60.77
23419;BME280;11882;42.522;27.458;2022-09-03T06:18:34;100972.00;;;30.45;60.93
23419;BME280;11882;42.522;27.458;2022-09-03T06:21:04;100975.44;;;30.51;60.53
23419;BME280;11882;42.522;27.458;2022-09-03T06:23:32;100968.22;;;30.55;60.20
23419;BME280;11882;42.522;27.458;2022-09-03T06:26:01;100961.03;;;30.59;59.34
23419;BME280;11882;42.522;27.458;2022-09-03T06:28:29;100968.34;;;30.63;59.80
23419;BME280;11882;42.522;27.458;2022-09-03T06:30:57;100966.53;;;30.72;58.77
23419;BME280;11882;42.522;27.458;2022-09-03T06:33:25;100962.75;;;30.82;58.43
23419;BME280;11882;42.522;27.458;2022-09-03T06:35:56;100964.47;;;30.92;58.33
23419;BME280;11882;42.522;27.458;2022-09-03T06:38:25;100959.59;;;30.89;57.91
23419;BME280;11882;42.522;27.458;2022-09-03T06:40:53;100959.88;;;31.01;57.93
23419;BME280;11882;42.522;27.458;2022-09-03T06:43:21;100968.63;;;31.17;57.44
23419;BME280;11882;42.522;27.458;2022-09-03T06:45:53;100965.34;;;31.28;57.21
23419;BME280;11882;42.522;27.458;2022-09-03T06:48:20;100968.53;;;31.22;56.98
23419;BME280;11882;42.522;27.458;2022-09-03T06:50:55;100963.03;;;31.22;57.17
23419;BME280;11882;42.522;27.458;2022-09-03T06:53:24;100966.47;;;31.14;55.93
23419;BME280;11882;42.522;27.458;2022-09-03T06:55:53;100975.81;;;31.13;57.07
23419;BME280;11882;42.522;27.458;2022-09-03T06:58:20;100979.63;;;31.17;56.86
23419;BME280;11882;42.522;27.458;2022-09-03T07:00:48;100979.72;;;31.25;57.08
23419;BME280;11882;42.522;27.458;2022-09-03T07:03:16;100981.25;;;31.31;56.40
23419;BME280;11882;42.522;27.458;2022-09-03T07:05:43;100992.00;;;31.41;56.39
23419;BME280;11882;42.522;27.458;2022-09-03T07:08:10;100989.00;;;31.52;56.39
23419;BME280;11882;42.522;27.458;2022-09-03T07:10:39;100993.09;;;31.54;55.90
23419;BME280;11882;42.522;27.458;2022-09-03T07:13:08;100999.91;;;31.57;55.66
23419;BME280;11882;42.522;27.458;2022-09-03T07:15:35;101002.03;;;31.60;55.73
23419;BME280;11882;42.522;27.458;2022-09-03T07:18:02;101002.94;;;31.69;56.02
23419;BME280;11882;42.522;27.458;2022-09-03T07:20:29;100998.75;;;31.71;56.01
23419;BME280;11882;42.522;27.458;2022-09-03T07:22:56;101006.88;;;31.77;55.29
23419;BME280;11882;42.522;27.458;2022-09-03T07:25:23;101005.81;;;31.86;55.01
23419;BME280;11882;42.522;27.458;2022-09-03T07:27:53;101012.00;;;31.92;54.14
23419;BME280;11882;42.522;27.458;2022-09-03T07:30:20;101019.28;;;31.88;53.61
23419;BME280;11882;42.522;27.458;2022-09-03T07:32:47;101013.31;;;31.94;54.27
23419;BME280;11882;42.522;27.458;2022-09-03T07:35:15;101011.88;;;31.97;54.34
23419;BME280;11882;42.522;27.458;2022-09-03T07:37:43;101013.88;;;32.05;53.43
23419;BME280;11882;42.522;27.458;2022-09-03T07:40:10;101018.13;;;32.11;53.57
23419;BME280;11882;42.522;27.458;2022-09-03T07:42:38;101015.56;;;32.15;52.71
23419;BME280;11882;42.522;27.458;2022-09-03T07:45:07;101013.97;;;32.22;51.92
23419;BME280;11882;42.522;27.458;2022-09-03T07:47:37;101017.38;;;32.19;52.01
23419;BME280;11882;42.522;27.458;2022-09-03T07:50:05;101005.16;;;32.12;51.36
23419;BME280;11882;42.522;27.458;2022-09-03T07:52:32;100999.66;;;32.12;51.74
23419;BME280;11882;42.522;27.458;2022-09-03T07:54:59;101007.13;;;32.11;52.60
23419;BME280;11882;42.522;27.458;2022-09-03T07:57:27;100999.22;;;32.18;52.27
23419;BME280;11882;42.522;27.458;2022-09-03T07:59:54;101005.78;;;32.31;52.06
23419;BME280;11882;42.522;27.458;2022-09-03T08:02:22;101006.25;;;32.24;51.63
23419;BME280;11882;42.522;27.458;2022-09-03T08:04:49;101009.81;;;32.02;52.40
23419;BME280;11882;42.522;27.458;2022-09-03T08:07:17;101007.63;;;31.91;52.43
23419;BME280;11882;42.522;27.458;2022-09-03T08:09:43;101004.25;;;31.94;52.74
23419;BME280;11882;42.522;27.458;2022-09-03T08:12:10;101008.44;;;31.91;52.48
23419;BME280;11882;42.522;27.458;2022-09-03T08:14:37;101007.19;;;31.97;51.73
23419;BME280;11882;42.522;27.458;2022-09-03T08:17:04;101004.94;;;31.99;51.70
23419;BME280;11882;42.522;27.458;2022-09-03T08:19:33;101004.94;;;31.99;51.11
23419;BME280;11882;42.522;27.458;2022-09-03T08:22:00;101012.25;;;32.04;52.10
23419;BME280;11882;42.522;27.458;2022-09-03T08:24:27;101013.00;;;31.96;51.55
23419;BME280;11882;42.522;27.458;2022-09-03T08:26:54;101009.44;;;31.95;51.63
23419;BME280;11882;42.522;27.458;2022-09-03T08:29:21;101008.56;;;32.09;51.69
23419;BME280;11882;42.522;27.458;2022-09-03T08:31:48;100998.97;;;32.06;51.62
23419;BME280;11882;42.522;27.458;2022-09-03T08:34:16;100998.22;;;32.14;51.74
23419;BME280;11882;42.522;27.458;2022-09-03T08:36:45;100993.59;;;32.23;50.53
23419;BME280;11882;42.522;27.458;2022-09-03T08:39:12;101001.91;;;32.32;51.57
23419;BME280;11882;42.522;27.458;2022-09-03T08:42:05;101001.94;;;32.41;50.53
23419;BME280;11882;42.522;27.458;2022-09-03T08:44:40;101006.66;;;32.40;50.57
23419;BME280;11882;42.522;27.458;2022-09-03T08:47:14;101001.47;;;32.39;50.14
23419;BME280;11882;42.522;27.458;2022-09-03T08:49:45;101005.50;;;32.41;50.30
23419;BME280;11882;42.522;27.458;2022-09-03T08:52:25;101006.00;;;32.43;50.82
23419;BME280;11882;42.522;27.458;2022-09-03T08:55:05;101015.72;;;32.41;50.23
23419;BME280;11882;42.522;27.458;2022-09-03T08:57:42;101008.94;;;32.47;49.84
23419;BME280;11882;42.522;27.458;2022-09-03T09:00:12;101015.00;;;32.26;50.36
23419;BME280;11882;42.522;27.458;2022-09-03T09:02:58;101011.31;;;32.31;49.65
23419;BME280;11882;42.522;27.458;2022-09-03T09:05:40;101018.00;;;32.39;50.12
23419;BME280;11882;42.522;27.458;2022-09-03T09:08:16;101022.88;;;32.42;50.48
23419;BME280;11882;42.522;27.458;2022-09-03T09:10:47;101022.72;;;32.47;49.17
23419;BME280;11882;42.522;27.458;2022-09-03T09:13:21;101024.22;;;32.53;49.89
23419;BME280;11882;42.522;27.458;2022-09-03T09:15:53;101022.44;;;32.57;49.42
23419;BME280;11882;42.522;27.458;2022-09-03T09:18:35;101028.59;;;32.54;49.42
23419;BME280;11882;42.522;27.458;2022-09-03T09:21:08;101034.47;;;32.61;49.00
23419;BME280;11882;42.522;27.458;2022-09-03T09:23:43;101032.69;;;32.65;48.59
23419;BME280;11882;42.522;27.458;2022-09-03T09:26:14;101028.63;;;32.62;49.18
23419;BME280;11882;42.522;27.458;2022-09-03T09:28:44;101014.53;;;32.64;49.35
23419;BME280;11882;42.522;27.458;2022-09-03T09:31:14;101014.25;;;32.74;48.95
23419;BME280;11882;42.522;27.458;2022-09-03T09:33:43;101011.97;;;32.76;47.98
23419;BME280;11882;42.522;27.458;2022-09-03T09:36:12;101018.81;;;32.79;48.86
23419;BME280;11882;42.522;27.458;2022-09-03T09:38:43;101020.78;;;32.78;48.91
23419;BME280;11882;42.522;27.458;2022-09-03T09:41:12;101017.88;;;32.83;49.28
23419;BME280;11882;42.522;27.458;2022-09-03T09:43:40;101017.88;;;32.83;48.65
23419;BME280;11882;42.522;27.458;2022-09-03T09:46:11;101014.47;;;32.86;48.49
23419;BME280;11882;42.522;27.458;2022-09-03T09:48:46;101014.31;;;32.91;48.50
23419;BME280;11882;42.522;27.458;2022-09-03T09:51:19;101007.53;;;32.97;48.60
23419;BME280;11882;42.522;27.458;2022-09-03T09:53:59;101009.16;;;32.98;48.62
23419;BME280;11882;42.522;27.458;2022-09-03T09:56:26;101005.41;;;32.94;48.43
23419;BME280;11882;42.522;27.458;2022-09-03T09:59:02;101014.97;;;32.88;48.27
23419;BME280;11882;42.522;27.458;2022-09-03T10:01:29;101023.56;;;32.87;48.38
23419;BME280;11882;42.522;27.458;2022-09-03T10:03:57;101018.03;;;32.87;48.65
23419;BME280;11882;42.522;27.458;2022-09-03T10:06:26;101015.34;;;32.64;48.50
23419;BME280;11882;42.522;27.458;2022-09-03T10:09:14;101017.94;;;32.69;48.26
23419;BME280;11882;42.522;27.458;2022-09-03T10:11:44;101025.59;;;32.73;48.31
23419;BME280;11882;42.522;27.458;2022-09-03T10:14:19;101024.28;;;32.70;47.51
23419;BME280;11882;42.522;27.458;2022-09-03T10:16:55;101025.72;;;32.67;47.93
23419;BME280;11882;42.522;27.458;2022-09-03T10:19:32;101020.69;;;32.61;48.50
23419;BME280;11882;42.522;27.458;2022-09-03T10:22:06;101015.91;;;32.44;48.72
23419;BME280;11882;42.522;27.458;2022-09-03T10:24:45;101023.38;;;32.21;49.49
23419;BME280;11882;42.522;27.458;2022-09-03T10:27:15;101022.50;;;32.12;49.67
23419;BME280;11882;42.522;27.458;2022-09-03T10:29:43;101034.03;;;32.14;49.76
23419;BME280;11882;42.522;27.458;2022-09-03T10:32:23;101027.19;;;32.12;50.39
23419;BME280;11882;42.522;27.458;2022-09-03T10:35:01;101033.22;;;32.14;50.10
23419;BME280;11882;42.522;27.458;2022-09-03T10:37:36;101031.75;;;32.16;49.97
23419;BME280;11882;42.522;27.458;2022-09-03T10:40:15;101042.09;;;32.11;50.25
23419;BME280;11882;42.522;27.458;2022-09-03T10:42:53;101039.66;;;32.09;50.30
23419;BME280;11882;42.522;27.458;2022-09-03T10:45:32;101044.22;;;32.14;49.84
23419;BME280;11882;42.522;27.458;2022-09-03T10:48:15;101034.84;;;32.15;49.99
23419;BME280;11882;42.522;27.458;2022-09-03T10:50:47;101046.78;;;32.10;50.21
23419;BME280;11882;42.522;27.458;2022-09-03T10:53:31;101046.41;;;32.03;49.74
23419;BME280;11882;42.522;27.458;2022-09-03T10:56:08;101049.44;;;31.93;49.54
23419;BME280;11882;42.522;27.458;2022-09-03T10:58:47;101057.19;;;31.91;49.41
23419;BME280;11882;42.522;27.458;2022-09-03T11:01:21;101058.69;;;31.75;50.09
23419;BME280;11882;42.522;27.458;2022-09-03T11:03:57;101058.25;;;31.81;49.90
23419;BME280;11882;42.522;27.458;2022-09-03T11:06:29;101053.38;;;31.78;49.75
23419;BME280;11882;42.522;27.458;2022-09-03T11:09:01;101057.88;;;31.74;49.70
23419;BME280;11882;42.522;27.458;2022-09-03T11:11:33;101049.13;;;31.58;49.82
23419;BME280;11882;42.522;27.458;2022-09-03T11:14:06;101045.78;;;31.48;49.95
23419;BME280;11882;42.522;27.458;2022-09-03T11:16:37;101045.91;;;31.42;50.16
23419;BME280;11882;42.522;27.458;2022-09-03T11:19:07;101050.19;;;31.35;50.51
23419;BME280;11882;42.522;27.458;2022-09-03T11:21:36;101048.69;;;31.29;50.69
23419;BME280;11882;42.522;27.458;2022-09-03T11:24:11;101049.09;;;31.22;51.53
23419;BME280;11882;42.522;27.458;2022-09-03T11:26:42;101060.56;;;31.10;50.93
23419;BME280;11882;42.522;27.458;2022-09-03T11:29:14;101045.69;;;30.84;50.93
23419;BME280;11882;42.522;27.458;2022-09-03T11:31:51;101052.41;;;30.78;51.30
23419;BME280;11882;42.522;27.458;2022-09-03T11:34:28;101053.16;;;30.37;52.83
23419;BME280;11882;42.522;27.458;2022-09-03T11:37:19;101050.59;;;30.27;52.68
23419;BME280;11882;42.522;27.458;2022-09-03T11:39:55;101045.19;;;30.22;52.76
23419;BME280;11882;42.522;27.458;2022-09-03T11:42:30;101054.34;;;30.31;52.62
23419;BME280;11882;42.522;27.458;2022-09-03T11:45:12;101048.88;;;30.31;52.72
23419;BME280;11882;42.522;27.458;2022-09-03T11:47:41;101052.72;;;30.30;52.86
23419;BME280;11882;42.522;27.458;2022-09-03T11:50:19;101059.03;;;30.31;52.58
23419;BME280;11882;42.522;27.458;2022-09-03T11:52:48;101055.56;;;30.25;53.07
23419;BME280;11882;42.522;27.458;2022-09-03T11:55:30;101053.13;;;30.24;52.51
23419;BME280;11882;42.522;27.458;2022-09-03T11:58:10;101047.06;;;30.08;52.57
23419;BME280;11882;42.522;27.458;2022-09-03T12:00:39;101058.13;;;30.03;53.12
23419;BME280;11882;42.522;27.458;2022-09-03T12:03:12;101057.63;;;30.01;52.92
23419;BME280;11882;42.522;27.458;2022-09-03T12:05:47;101060.88;;;29.84;53.54
23419;BME280;11882;42.522;27.458;2022-09-03T12:08:49;101063.84;;;29.88;52.55
23419;BME280;11882;42.522;27.458;2022-09-03T12:11:34;101048.03;;;29.79;53.62
23419;BME280;11882;42.522;27.458;2022-09-03T12:14:12;101055.69;;;29.82;53.02
23419;BME280;11882;42.522;27.458;2022-09-03T12:17:04;101064.81;;;29.78;53.44
23419;BME280;11882;42.522;27.458;2022-09-03T12:19:37;101066.00;;;29.72;52.64
23419;BME280;11882;42.522;27.458;2022-09-03T12:22:06;101053.38;;;29.71;53.40
23419;BME280;11882;42.522;27.458;2022-09-03T12:24:39;101057.41;;;29.60;53.28
23419;BME280;11882;42.522;27.458;2022-09-03T12:27:09;101060.28;;;29.49;53.09
23419;BME280;11882;42.522;27.458;2022-09-03T12:29:49;101053.16;;;29.48;54.47
23419;BME280;11882;42.522;27.458;2022-09-03T12:32:24;101058.94;;;29.47;53.98
23419;BME280;11882;42.522;27.458;2022-09-03T12:34:51;101065.72;;;29.31;54.65
23419;BME280;11882;42.522;27.458;2022-09-03T12:37:20;101065.66;;;29.36;53.90
23419;BME280;11882;42.522;27.458;2022-09-03T12:39:53;101072.19;;;29.40;53.76
23419;BME280;11882;42.522;27.458;2022-09-03T12:42:24;101067.88;;;29.34;54.00
23419;BME280;11882;42.522;27.458;2022-09-03T12:44:53;101073.00;;;29.40;54.38
23419;BME280;11882;42.522;27.458;2022-09-03T12:47:21;101072.91;;;29.27;54.16
23419;BME280;11882;42.522;27.458;2022-09-03T12:49:49;101071.13;;;29.36;53.50
23419;BME280;11882;42.522;27.458;2022-09-03T12:52:19;101068.09;;;29.37;54.06
23419;BME280;11882;42.522;27.458;2022-09-03T12:54:52;101066.81;;;29.30;54.60
23419;BME280;11882;42.522;27.458;2022-09-03T12:57:24;101075.22;;;29.38;53.89
23419;BME280;11882;42.522;27.458;2022-09-03T12:59:56;101073.63;;;29.13;53.64
23419;BME280;11882;42.522;27.458;2022-09-03T13:02:27;101075.13;;;29.25;54.07